Wetterstation Vordersexau
Wetterdaten: Woche 23.05.11 - 29.05.11 (KW21)
Datum Zeit Temp. A. Feuchte A. Luftdruck Regen Wind Richtung Taupunkt Windchill Windben
23.05.2011 00:00 18,5 C 62 % 1022,1 hPa 0,0 l/m 0,0 km/h N-NO 11,1 C 18,5 C 0,0 km/h
23.05.2011 01:00 17,4 C 61 % 1022,8 hPa 0,0 l/m 0,0 km/h N-NO 9,8 C 17,4 C 0,0 km/h
23.05.2011 02:00 15,9 C 62 % 1023,3 hPa 0,0 l/m 0,0 km/h O 8,6 C 15,9 C 0,0 km/h
23.05.2011 03:00 14,3 C 70 % 1023,3 hPa 0,0 l/m 0,0 km/h SO 8,9 C 14,3 C 0,0 km/h
23.05.2011 04:00 12,0 C 76 % 1023,5 hPa 0,0 l/m 0,0 km/h NO 7,9 C 12,0 C 0,0 km/h
23.05.2011 05:00 11,9 C 76 % 1023,7 hPa 0,0 l/m 0,0 km/h S-SO 7,8 C 11,9 C 0,0 km/h
23.05.2011 06:00 11,6 C 80 % 1024,3 hPa 0,0 l/m 0,0 km/h S-SO 8,3 C 11,6 C 0,0 km/h
23.05.2011 07:00 14,3 C 77 % 1024,4 hPa 0,0 l/m 0,0 km/h N-NW 10,3 C 14,3 C 0,0 km/h
23.05.2011 08:00 22,8 C 51 % 1024,5 hPa 0,0 l/m 0,0 km/h W-SW 12,1 C 22,8 C 0,0 km/h
23.05.2011 09:00 25,8 C 39 % 1024,3 hPa 0,0 l/m 0,0 km/h S-SW 10,8 C 25,8 C 0,0 km/h
23.05.2011 10:00 26,6 C 36 % 1024,3 hPa 0,0 l/m 5,8 km/h W-NW 10,3 C 26,6 C 3,2 km/h
23.05.2011 11:00 27,1 C 36 % 1023,8 hPa 0,0 l/m 9,7 km/h W-SW 10,7 C 26,5 C 5,4 km/h
23.05.2011 12:00 26,7 C 35 % 1023,7 hPa 0,0 l/m 8,4 km/h W 10,0 C 26,3 C 4,7 km/h
23.05.2011 13:00 26,9 C 35 % 1023,3 hPa 0,0 l/m 9,1 km/h W 10,1 C 26,4 C 5,0 km/h
23.05.2011 14:00 27,3 C 36 % 1022,6 hPa 0,0 l/m 11,7 km/h W-NW 10,9 C 26,5 C 6,5 km/h
23.05.2011 15:00 29,1 C 32 % 1022,1 hPa 0,0 l/m 0,0 km/h W-NW 10,7 C 29,1 C 0,0 km/h
23.05.2011 16:00 30,7 C 29 % 1021,4 hPa 0,0 l/m 20,1 km/h NW 10,6 C 30,0 C 11,2 km/h
23.05.2011 17:00 32,3 C 26 % 1021,0 hPa 0,0 l/m 3,2 km/h O 10,3 C 32,3 C 1,8 km/h
23.05.2011 18:00 31,8 C 26 % 1020,5 hPa 0,0 l/m 0,0 km/h NO 9,9 C 31,8 C 0,0 km/h
23.05.2011 19:00 28,2 C 30 % 1020,5 hPa 0,0 l/m 0,0 km/h NO 9,0 C 28,2 C 0,0 km/h
23.05.2011 20:00 21,6 C 46 % 1020,2 hPa 0,0 l/m 0,0 km/h SO 9,5 C 21,6 C 0,0 km/h
23.05.2011 21:00 17,1 C 59 % 1020,2 hPa 0,0 l/m 0,0 km/h SO 9,0 C 17,1 C 0,0 km/h
23.05.2011 22:00 14,5 C 69 % 1019,9 hPa 0,0 l/m 0,0 km/h NO 8,9 C 14,5 C 0,0 km/h
23.05.2011 23:00 13,8 C 73 % 1020,0 hPa 0,0 l/m 0,0 km/h S-SO 9,0 C 13,8 C 0,0 km/h
24.05.2011 00:00 13,2 C 75 % 1020,1 hPa 0,0 l/m 0,0 km/h S-SO 8,9 C 13,2 C 0,0 km/h
24.05.2011 01:00 12,4 C 78 % 1020,4 hPa 0,0 l/m 0,0 km/h NO 8,7 C 12,4 C 0,0 km/h
24.05.2011 02:00 11,6 C 79 % 1020,2 hPa 0,0 l/m 0,0 km/h S-SO 8,1 C 11,6 C 0,0 km/h
24.05.2011 03:00 10,4 C 82 % 1020,0 hPa 0,0 l/m 0,0 km/h NO 7,5 C 10,4 C 0,0 km/h
24.05.2011 04:00 10,2 C 84 % 1019,9 hPa 0,0 l/m 0,0 km/h NO 7,6 C 10,2 C 0,0 km/h
24.05.2011 05:00 9,1 C 84 % 1020,2 hPa 0,0 l/m 0,0 km/h NO 6,5 C 9,1 C 0,0 km/h
24.05.2011 06:00 9,9 C 85 % 1020,7 hPa 0,0 l/m 0,0 km/h SO 7,5 C 9,9 C 0,0 km/h
24.05.2011 07:00 11,9 C 84 % 1021,0 hPa 0,0 l/m 0,0 km/h NO 9,3 C 11,9 C 0,0 km/h
24.05.2011 08:00 23,8 C 56 % 1021,1 hPa 0,0 l/m 2,6 km/h SW 14,5 C 23,8 C 1,4 km/h
24.05.2011 09:00 27,5 C 44 % 1021,2 hPa 0,0 l/m 0,0 km/h SW 14,1 C 27,5 C 0,0 km/h
24.05.2011 10:00 28,9 C 40 % 1021,4 hPa 0,0 l/m 7,8 km/h W-NW 13,9 C 28,7 C 4,3 km/h
24.05.2011 11:00 29,5 C 38 % 1021,3 hPa 0,0 l/m 4,5 km/h SW 13,7 C 29,5 C 2,5 km/h
24.05.2011 12:00 28,8 C 37 % 1021,1 hPa 0,0 l/m 5,2 km/h W 12,6 C 28,8 C 2,9 km/h
24.05.2011 13:00 26,6 C 41 % 1021,0 hPa 0,0 l/m 0,0 km/h N-NO 12,2 C 26,6 C 0,0 km/h
24.05.2011 14:00 28,3 C 37 % 1020,8 hPa 0,0 l/m 0,0 km/h N-NO 12,2 C 28,3 C 0,0 km/h
24.05.2011 15:00 31,1 C 29 % 1021,1 hPa 0,0 l/m 0,0 km/h N-NO 10,9 C 31,1 C 0,0 km/h
24.05.2011 16:00 29,2 C 27 % 1021,4 hPa 0,0 l/m 12,3 km/h N-NW 8,3 C 28,6 C 6,8 km/h
24.05.2011 17:00 28,4 C 28 % 1021,8 hPa 0,0 l/m 0,0 km/h N 8,1 C 28,4 C 0,0 km/h
24.05.2011 18:00 28,9 C 30 % 1021,9 hPa 0,0 l/m 19,4 km/h N-NO 9,6 C 27,7 C 10,8 km/h
24.05.2011 19:00 22,9 C 41 % 1022,4 hPa 0,0 l/m 0,0 km/h NO 8,9 C 22,9 C 0,0 km/h
24.05.2011 20:00 19,4 C 51 % 1023,4 hPa 0,0 l/m 1,3 km/h N-NO 9,0 C 19,4 C 0,7 km/h
24.05.2011 21:00 17,5 C 50 % 1024,3 hPa 0,0 l/m 14,3 km/h N 7,0 C 14,4 C 7,9 km/h
24.05.2011 22:00 16,5 C 42 % 1024,9 hPa 0,0 l/m 0,0 km/h NO 3,5 C 16,5 C 0,0 km/h
24.05.2011 23:00 12,0 C 61 % 1025,4 hPa 0,0 l/m 0,0 km/h NO 4,7 C 12,0 C 0,0 km/h
25.05.2011 00:00 10,9 C 62 % 1025,7 hPa 0,0 l/m 0,0 km/h NO 3,9 C 10,9 C 0,0 km/h
25.05.2011 01:00 10,4 C 64 % 1026,1 hPa 0,0 l/m 0,0 km/h SO 3,9 C 10,4 C 0,0 km/h
25.05.2011 02:00 8,9 C 69 % 1026,0 hPa 0,0 l/m 0,0 km/h NO 3,5 C 8,9 C 0,0 km/h
25.05.2011 03:00 7,9 C 72 % 1025,7 hPa 0,0 l/m 0,0 km/h O-NO 3,2 C 7,9 C 0,0 km/h
25.05.2011 04:00 7,5 C 75 % 1025,4 hPa 0,0 l/m 0,0 km/h NO 3,4 C 7,5 C 0,0 km/h
25.05.2011 05:00 6,7 C 77 % 1025,2 hPa 0,0 l/m 0,0 km/h N-NO 3,0 C 6,7 C 0,0 km/h
25.05.2011 06:00 6,9 C 79 % 1025,3 hPa 0,0 l/m 0,0 km/h W 3,5 C 6,9 C 0,0 km/h
25.05.2011 07:00 9,8 C 77 % 1025,3 hPa 0,0 l/m 0,0 km/h NW 6,0 C 9,8 C 0,0 km/h
25.05.2011 08:00 18,6 C 53 % 1025,1 hPa 0,0 l/m 3,2 km/h W 8,8 C 18,6 C 1,8 km/h
25.05.2011 09:00 23,8 C 40 % 1024,7 hPa 0,0 l/m 1,9 km/h N-NO 9,4 C 23,8 C 1,1 km/h
25.05.2011 10:00 26,2 C 31 % 1024,0 hPa 0,0 l/m 3,9 km/h W 7,7 C 26,2 C 2,2 km/h
25.05.2011 11:00 26,8 C 29 % 1023,0 hPa 0,0 l/m 0,0 km/h N-NO 7,3 C 26,8 C 0,0 km/h
25.05.2011 12:00 26,0 C 29 % 1022,5 hPa 0,0 l/m 4,5 km/h N-NW 6,6 C 26,0 C 2,5 km/h
25.05.2011 13:00 26,6 C 30 % 1021,4 hPa 0,0 l/m 14,3 km/h O-NO 7,6 C 25,3 C 7,9 km/h
25.05.2011 14:00 27,9 C 29 % 1020,5 hPa 0,0 l/m 18,8 km/h N-NO 8,2 C 26,5 C 10,4 km/h
25.05.2011 15:00 31,4 C 26 % 1019,3 hPa 0,0 l/m 13,0 km/h NW 9,6 C 31,1 C 7,2 km/h
25.05.2011 16:00 32,7 C 24 % 1018,3 hPa 0,0 l/m 14,3 km/h W-NW 9,5 C 32,6 C 7,9 km/h
25.05.2011 17:00 31,8 C 25 % 1017,5 hPa 0,0 l/m 5,8 km/h NW 9,3 C 31,8 C 3,2 km/h
25.05.2011 18:00 30,8 C 26 % 1017,3 hPa 0,0 l/m 7,1 km/h W-NW 9,1 C 30,8 C 4,0 km/h
25.05.2011 19:00 26,9 C 30 % 1017,0 hPa 0,0 l/m 5,2 km/h W 7,8 C 26,9 C 2,9 km/h
25.05.2011 20:00 21,4 C 40 % 1016,9 hPa 0,0 l/m 0,0 km/h N 7,2 C 21,4 C 0,0 km/h
25.05.2011 21:00 17,1 C 58 % 1016,7 hPa 0,0 l/m 0,0 km/h O-NO 8,8 C 17,1 C 0,0 km/h
25.05.2011 22:00 14,4 C 63 % 1016,6 hPa 0,0 l/m 0,0 km/h N-NO 7,4 C 14,4 C 0,0 km/h
25.05.2011 23:00 13,6 C 69 % 1016,0 hPa 0,0 l/m 0,0 km/h SO 8,0 C 13,6 C 0,0 km/h
26.05.2011 00:00 12,0 C 75 % 1015,5 hPa 0,0 l/m 0,0 km/h SO 7,7 C 12,0 C 0,0 km/h
26.05.2011 01:00 11,2 C 77 % 1015,1 hPa 0,0 l/m 0,0 km/h O-NO 7,3 C 11,2 C 0,0 km/h
26.05.2011 02:00 10,6 C 81 % 1014,9 hPa 0,0 l/m 0,0 km/h O-NO 7,5 C 10,6 C 0,0 km/h
26.05.2011 03:00 10,3 C 82 % 1014,3 hPa 0,0 l/m 0,0 km/h NO 7,4 C 10,3 C 0,0 km/h
26.05.2011 04:00 10,1 C 82 % 1013,6 hPa 0,0 l/m 0,0 km/h O 7,2 C 10,1 C 0,0 km/h
26.05.2011 05:00 9,8 C 83 % 1013,4 hPa 0,0 l/m 0,0 km/h O-NO 7,1 C 9,8 C 0,0 km/h
26.05.2011 06:00 10,8 C 83 % 1013,4 hPa 0,0 l/m 0,0 km/h NO 8,0 C 10,8 C 0,0 km/h
26.05.2011 07:00 14,1 C 81 % 1013,2 hPa 0,0 l/m 0,0 km/h S-SO 10,9 C 14,1 C 0,0 km/h
26.05.2011 08:00 27,2 C 51 % 1012,7 hPa 0,0 l/m 0,0 km/h SW 16,2 C 27,2 C 0,0 km/h
26.05.2011 09:00 28,7 C 38 % 1012,5 hPa 0,0 l/m 19,4 km/h W-SW 13,0 C 27,5 C 10,8 km/h
26.05.2011 10:00 28,6 C 36 % 1012,1 hPa 0,0 l/m 33,0 km/h SW 12,0 C 26,7 C 18,4 km/h
26.05.2011 11:00 29,3 C 35 % 1011,7 hPa 0,0 l/m 21,4 km/h W 12,2 C 28,1 C 11,9 km/h
26.05.2011 12:00 29,9 C 30 % 1011,6 hPa 0,0 l/m 19,4 km/h W 10,4 C 29,0 C 10,8 km/h
26.05.2011 13:00 30,2 C 31 % 1010,8 hPa 0,0 l/m 8,4 km/h NW 11,2 C 30,0 C 4,7 km/h
26.05.2011 14:00 30,3 C 32 % 1010,8 hPa 0,0 l/m 9,1 km/h N-NW 11,7 C 30,1 C 5,0 km/h
26.05.2011 15:00 25,8 C 40 % 1012,0 hPa 0,0 l/m 0,0 km/h W-NW 11,2 C 25,8 C 0,0 km/h
26.05.2011 16:00 24,2 C 44 % 1011,9 hPa 0,0 l/m 16,2 km/h SW 11,2 C 22,2 C 9,0 km/h
26.05.2011 17:00 21,4 C 53 % 1012,7 hPa 0,0 l/m 23,3 km/h W 11,4 C 17,5 C 13,0 km/h
26.05.2011 18:00 18,1 C 64 % 1012,5 hPa 0,0 l/m 22,7 km/h S 11,2 C 13,2 C 12,6 km/h
26.05.2011 19:00 20,8 C 60 % 1012,4 hPa 0,0 l/m 11,0 km/h S-SW 12,7 C 19,2 C 6,1 km/h
26.05.2011 20:00 18,4 C 62 % 1012,7 hPa 0,0 l/m 8,4 km/h S-SW 11,0 C 17,5 C 4,7 km/h
26.05.2011 21:00 17,4 C 64 % 1013,5 hPa 0,0 l/m 9,7 km/h W-SW 10,5 C 15,9 C 5,4 km/h
26.05.2011 22:00 16,4 C 68 % 1013,9 hPa 0,0 l/m 7,8 km/h W-SW 10,5 C 15,7 C 4,3 km/h
26.05.2011 23:00 16,1 C 71 % 1013,8 hPa 0,0 l/m 1,3 km/h W-NW 10,8 C 16,1 C 0,7 km/h
27.05.2011 00:00 15,6 C 72 % 1013,9 hPa 0,0 l/m 0,0 km/h W-NW 10,6 C 15,6 C 0,0 km/h
27.05.2011 01:00 15,2 C 74 % 1014,1 hPa 0,0 l/m 0,0 km/h NW 10,6 C 15,2 C 0,0 km/h
27.05.2011 02:00 14,3 C 78 % 1014,3 hPa 0,0 l/m 0,0 km/h NW 10,5 C 14,3 C 0,0 km/h
27.05.2011 03:00 14,1 C 77 % 1013,9 hPa 0,0 l/m 0,0 km/h N-NO 10,1 C 14,1 C 0,0 km/h
27.05.2011 04:00 13,6 C 77 % 1013,9 hPa 0,0 l/m 0,0 km/h O-SO 9,6 C 13,6 C 0,0 km/h
27.05.2011 05:00 13,2 C 77 % 1014,0 hPa 0,0 l/m 0,0 km/h O-SO 9,3 C 13,2 C 0,0 km/h
27.05.2011 06:00 13,2 C 78 % 1014,3 hPa 0,0 l/m 0,0 km/h SO 9,4 C 13,2 C 0,0 km/h
27.05.2011 07:00 14,2 C 75 % 1014,3 hPa 0,0 l/m 0,0 km/h N 9,8 C 14,2 C 0,0 km/h
27.05.2011 08:00 14,3 C 64 % 1014,6 hPa 0,0 l/m 0,0 km/h N-NO 7,6 C 14,3 C 0,0 km/h
27.05.2011 09:00 15,5 C 59 % 1014,4 hPa 0,0 l/m 0,0 km/h W-NW 7,5 C 15,5 C 0,0 km/h
27.05.2011 10:00 17,3 C 54 % 1014,4 hPa 0,0 l/m 0,0 km/h W 7,9 C 17,3 C 0,0 km/h
27.05.2011 11:00 16,4 C 52 % 1014,3 hPa 0,0 l/m 5,8 km/h SW 6,5 C 16,4 C 3,2 km/h
27.05.2011 12:00 17,2 C 50 % 1014,6 hPa 0,0 l/m 7,8 km/h S 6,7 C 16,5 C 4,3 km/h
27.05.2011 13:00 19,1 C 46 % 1014,1 hPa 0,0 l/m 5,8 km/h W-SW 7,2 C 19,1 C 3,2 km/h
27.05.2011 14:00 15,3 C 60 % 1014,9 hPa 0,0 l/m 0,0 km/h W-NW 7,6 C 15,3 C 0,0 km/h
27.05.2011 15:00 21,5 C 47 % 1014,8 hPa 0,4 l/m 0,0 km/h NW 9,7 C 21,5 C 0,0 km/h
27.05.2011 16:00 16,4 C 51 % 1015,5 hPa 0,0 l/m 0,0 km/h W-NW 6,2 C 16,4 C 0,0 km/h
27.05.2011 17:00 12,4 C 73 % 1016,4 hPa 0,0 l/m 0,0 km/h S 7,7 C 12,4 C 0,0 km/h
27.05.2011 18:00 13,4 C 73 % 1016,4 hPa 0,0 l/m 0,0 km/h NO 8,7 C 13,4 C 0,0 km/h
27.05.2011 19:00 13,0 C 73 % 1017,0 hPa 0,0 l/m 0,0 km/h S-SO 8,3 C 13,0 C 0,0 km/h
27.05.2011 20:00 11,8 C 82 % 1017,4 hPa 1,1 l/m 0,0 km/h O-SO 8,8 C 11,8 C 0,0 km/h
27.05.2011 21:00 10,1 C 84 % 1017,4 hPa 0,0 l/m 0,0 km/h NO 7,5 C 10,1 C 0,0 km/h
27.05.2011 22:00 8,5 C 85 % 1017,9 hPa 0,0 l/m 0,0 km/h O-NO 6,1 C 8,5 C 0,0 km/h
27.05.2011 23:00 8,9 C 86 % 1017,9 hPa 0,0 l/m 0,0 km/h O-SO 6,7 C 8,9 C 0,0 km/h
28.05.2011 00:00 8,9 C 86 % 1017,9 hPa 0,0 l/m 0,0 km/h O-NO 6,7 C 8,9 C 0,0 km/h
28.05.2011 01:00 8,6 C 86 % 1018,1 hPa 0,4 l/m 0,0 km/h SO 6,4 C 8,6 C 0,0 km/h
28.05.2011 02:00 8,4 C 86 % 1018,1 hPa 0,0 l/m 0,0 km/h O-SO 6,2 C 8,4 C 0,0 km/h
28.05.2011 03:00 7,9 C 86 % 1017,8 hPa 0,0 l/m 0,0 km/h SO 5,7 C 7,9 C 0,0 km/h
28.05.2011 04:00 6,4 C 87 % 1017,6 hPa 0,0 l/m 0,0 km/h NO 4,4 C 6,4 C 0,0 km/h
28.05.2011 05:00 6,1 C 87 % 1017,9 hPa 0,0 l/m 0,0 km/h S-SO 4,1 C 6,1 C 0,0 km/h
28.05.2011 06:00 6,6 C 86 % 1018,1 hPa 0,0 l/m 0,0 km/h S-SO 4,4 C 6,6 C 0,0 km/h
28.05.2011 07:00 7,8 C 86 % 1018,3 hPa 0,0 l/m 6,5 km/h S-SO 5,6 C 7,7 C 3,6 km/h
28.05.2011 08:00 14,9 C 77 % 1018,4 hPa 0,0 l/m 10,4 km/h W 10,9 C 12,8 C 5,8 km/h
28.05.2011 09:00 21,8 C 53 % 1018,2 hPa 0,0 l/m 0,0 km/h NO 11,8 C 21,8 C 0,0 km/h
28.05.2011 10:00 23,4 C 44 % 1017,5 hPa 0,0 l/m 1,9 km/h N-NO 10,4 C 23,4 C 1,1 km/h
28.05.2011 11:00 23,8 C 37 % 1017,0 hPa 0,0 l/m 20,1 km/h N 8,2 C 21,1 C 11,2 km/h
28.05.2011 12:00 22,0 C 39 % 1016,7 hPa 0,0 l/m 7,8 km/h N-NW 7,4 C 21,5 C 4,3 km/h
28.05.2011 13:00 21,4 C 40 % 1016,2 hPa 0,0 l/m 0,0 km/h S-SW 7,2 C 21,4 C 0,0 km/h
28.05.2011 14:00 23,9 C 37 % 1015,3 hPa 0,0 l/m 0,0 km/h W-NW 8,3 C 23,9 C 0,0 km/h
28.05.2011 15:00 26,4 C 30 % 1014,8 hPa 0,0 l/m 2,6 km/h SW 7,4 C 26,4 C 1,4 km/h
28.05.2011 16:00 27,3 C 28 % 1014,7 hPa 0,0 l/m 2,6 km/h W-NW 7,2 C 27,3 C 1,4 km/h
28.05.2011 17:00 28,6 C 26 % 1014,4 hPa 0,0 l/m 17,5 km/h NW 7,2 C 27,5 C 9,7 km/h
28.05.2011 18:00 23,8 C 32 % 1014,4 hPa 0,0 l/m 3,2 km/h W-NW 6,1 C 23,8 C 1,8 km/h
28.05.2011 19:00 20,8 C 37 % 1014,4 hPa 0,0 l/m 0,0 km/h W 5,6 C 20,8 C 0,0 km/h
28.05.2011 20:00 17,8 C 48 % 1014,4 hPa 0,0 l/m 0,0 km/h O-NO 6,6 C 17,8 C 0,0 km/h
28.05.2011 21:00 13,3 C 62 % 1014,7 hPa 0,0 l/m 0,0 km/h SO 6,2 C 13,3 C 0,0 km/h
28.05.2011 22:00 11,3 C 68 % 1015,4 hPa 0,0 l/m 0,0 km/h O-SO 5,6 C 11,3 C 0,0 km/h
28.05.2011 23:00 10,3 C 72 % 1015,3 hPa 0,0 l/m 0,0 km/h NO 5,5 C 10,3 C 0,0 km/h
29.05.2011 00:00 8,9 C 78 % 1015,9 hPa 0,0 l/m 0,0 km/h NO 5,3 C 8,9 C 0,0 km/h
29.05.2011 01:00 8,6 C 78 % 1015,9 hPa 0,0 l/m 0,0 km/h S-SO 5,0 C 8,6 C 0,0 km/h
29.05.2011 02:00 7,8 C 81 % 1015,7 hPa 0,0 l/m 1,9 km/h O-SO 4,7 C 7,8 C 1,1 km/h
29.05.2011 03:00 7,4 C 82 % 1015,9 hPa 0,0 l/m 0,0 km/h O-SO 4,5 C 7,4 C 0,0 km/h
29.05.2011 04:00 6,8 C 84 % 1016,2 hPa 0,0 l/m 0,0 km/h NO 4,3 C 6,8 C 0,0 km/h
29.05.2011 05:00 6,9 C 84 % 1016,3 hPa 0,0 l/m 0,0 km/h S-SO 4,4 C 6,9 C 0,0 km/h
29.05.2011 06:00 7,6 C 84 % 1016,6 hPa 0,0 l/m 0,0 km/h O-NO 5,1 C 7,6 C 0,0 km/h
29.05.2011 07:00 9,9 C 81 % 1016,8 hPa 0,0 l/m 0,0 km/h SO 6,8 C 9,9 C 0,0 km/h
29.05.2011 08:00 18,1 C 63 % 1017,1 hPa 0,0 l/m 0,0 km/h SW 10,9 C 18,1 C 0,0 km/h
29.05.2011 09:00 25,3 C 42 % 1017,2 hPa 0,0 l/m 0,0 km/h W-SW 11,5 C 25,3 C 0,0 km/h
29.05.2011 10:00 25,1 C 37 % 1016,9 hPa 0,0 l/m 21,4 km/h S 9,4 C 22,6 C 11,9 km/h
29.05.2011 11:00 25,6 C 35 % 1016,6 hPa 0,0 l/m 5,2 km/h NW 9,0 C 25,6 C 2,9 km/h
29.05.2011 12:00 24,8 C 35 % 1016,4 hPa 0,0 l/m 0,0 km/h SW 8,3 C 24,8 C 0,0 km/h
29.05.2011 13:00 26,4 C 30 % 1016,1 hPa 0,0 l/m 25,9 km/h W-NW 7,4 C 24,0 C 14,4 km/h
29.05.2011 14:00 27,3 C 30 % 1015,9 hPa 0,0 l/m 0,0 km/h W 8,2 C 27,3 C 0,0 km/h
29.05.2011 15:00 30,4 C 27 % 1015,3 hPa 0,0 l/m 3,9 km/h W 9,3 C 30,4 C 2,2 km/h
29.05.2011 16:00 32,6 C 25 % 1015,0 hPa 0,0 l/m 0,6 km/h W 10,0 C 32,6 C 0,4 km/h
29.05.2011 17:00 33,8 C 24 % 1014,6 hPa 0,0 l/m 0,6 km/h O-NO 10,4 C 33,8 C 0,4 km/h
29.05.2011 18:00 34,2 C 23 % 1014,0 hPa 0,0 l/m 0,0 km/h N-NO 10,1 C 34,2 C 0,0 km/h
29.05.2011 19:00 28,6 C 27 % 1014,0 hPa 0,0 l/m 0,0 km/h O-NO 7,8 C 28,6 C 0,0 km/h
29.05.2011 20:00 22,4 C 41 % 1014,2 hPa 0,0 l/m 0,0 km/h SO 8,5 C 22,4 C 0,0 km/h
29.05.2011 21:00 17,9 C 53 % 1014,3 hPa 0,0 l/m 0,0 km/h O-NO 8,2 C 17,9 C 0,0 km/h
29.05.2011 22:00 15,6 C 60 % 1014,5 hPa 0,0 l/m 0,0 km/h SO 7,9 C 15,6 C 0,0 km/h
29.05.2011 23:00 14,4 C 64 % 1014,6 hPa 0,0 l/m 0,0 km/h N-NW 7,7 C 14,4 C 0,0 km/h
Min-Datum _ 28.05.11 29.05.11 26.05.11 - 23.05.11 - 25.05.11 28.05.11 23.05.11
_ Min-Zeit 05:30 18:30 13:30 - 00:30 - 05:30 05:30 00:30
Minimum _ 6,1 C 23 % 1010,8 hPa - 0,0 km/h - 3,0 C 6,1 C 0,0 km/h
Max-Datum _ 29.05.11 28.05.11 25.05.11 27.05.11 26.05.11 - 26.05.11 29.05.11 26.05.11
_ Max-Zeit 18:30 04:30 01:30 20:30 10:30 - 08:30 18:30 10:30
Maximum _ 34,2 C 87 % 1026,1 hPa 1,1 l/m 33,0 km/h
SW
- 16,2 C 34,2 C 18,4 km/h
SW
Durchschnitt _ 18,7 C 56 % 1018,0 hPa #1,8 l/m 3,5 km/h NO 8,5 C 18,5 C 2,0 km/h
www.sexauwetter.de